Uttoxeter, United Kingdom
Current Conditions -  °F | °C
As of 5:50 AM on Tuesday 21 Oct 2014 (Local Time) from EGNX Reporting Station
Light Rain Light Rain  
Wind Chill: 54°   Ceiling: 2200
Heat Index: 54°   Visibility: 6mi
Dew Point: 52°   Wind: 25mph
Humidity: 94%   Direction: 200°SSW
Pressure: 29.41"   Gusts: NA
Location:  52.9°N, 1.86°W
Report Text: EGNX 210450Z 20022KT 9999 -RA FEW006 SCT010 BKN022 12/11 Q0996
Loading
Personal Weather Stations






























Interactive Weather Map
Tropical Storm Tracking
New forecast layout! Learn more

10-Day Weather Forecast

Advertisements
Track Severe Weather on mobile